createdAt,value
2023-02-02T00:01:34.660Z,1.13
2023-02-02T00:04:01.663Z,1.02
2023-02-02T00:06:30.574Z,0.85
2023-02-02T00:09:02.080Z,1.65
2023-02-02T00:11:29.065Z,1.33
2023-02-02T00:13:55.960Z,1.77
2023-02-02T00:16:29.119Z,1.77
2023-02-02T00:19:02.362Z,2.45
2023-02-02T00:21:31.883Z,1.40
2023-02-02T00:23:59.188Z,0.77
2023-02-02T00:26:26.373Z,1.05
2023-02-02T00:28:53.577Z,2.58
2023-02-02T00:31:20.521Z,1.13
2023-02-02T00:33:48.771Z,2.03
2023-02-02T00:36:16.815Z,1.05
2023-02-02T00:38:44.047Z,1.08
2023-02-02T00:41:11.007Z,1.23
2023-02-02T00:43:37.860Z,3.83
2023-02-02T00:46:05.739Z,1.73
2023-02-02T00:48:32.645Z,2.55
2023-02-02T00:50:59.640Z,1.38
2023-02-02T00:53:26.459Z,1.33
2023-02-02T00:55:53.242Z,1.02
2023-02-02T00:58:20.064Z,1.65
2023-02-02T01:00:46.937Z,1.73
2023-02-02T01:03:13.797Z,0.52
2023-02-02T01:05:40.733Z,1.98
2023-02-02T01:08:08.020Z,1.80
2023-02-02T01:10:35.394Z,0.73
2023-02-02T01:13:02.921Z,1.58
2023-02-02T01:15:30.724Z,1.02
2023-02-02T01:17:57.892Z,0.93
2023-02-02T01:20:25.857Z,1.60
2023-02-02T01:22:52.937Z,1.80
2023-02-02T01:25:19.988Z,1.05
2023-02-02T01:27:46.866Z,0.77
2023-02-02T01:30:13.824Z,1.10
2023-02-02T01:32:40.897Z,1.27
2023-02-02T01:35:08.011Z,1.20
2023-02-02T01:37:34.823Z,1.42
2023-02-02T01:40:01.696Z,1.60
2023-02-02T01:42:28.721Z,1.55
2023-02-02T01:45:11.184Z,0.52
2023-02-02T01:47:42.288Z,1.35
2023-02-02T01:50:12.103Z,1.38
2023-02-02T01:52:41.042Z,0.63
2023-02-02T01:55:11.631Z,0.90
2023-02-02T01:57:53.866Z,1.05
2023-02-02T02:00:27.175Z,1.00
2023-02-02T02:03:09.278Z,0.70
2023-02-02T02:05:43.046Z,0.88
2023-02-02T02:08:23.651Z,0.47
2023-02-02T02:10:50.858Z,1.13
2023-02-02T02:13:19.817Z,1.50
2023-02-02T02:16:21.455Z,2.42
2023-02-02T02:19:01.560Z,1.13
2023-02-02T02:22:10.179Z,1.00
2023-02-02T02:25:10.964Z,1.73
2023-02-02T02:27:56.053Z,0.75
2023-02-02T02:30:51.134Z,0.60
2023-02-02T02:33:46.672Z,1.23
2023-02-02T02:36:31.983Z,1.73
2023-02-02T02:39:17.536Z,0.90
2023-02-02T02:41:52.835Z,0.77
2023-02-02T02:44:21.867Z,1.65
2023-02-02T02:46:50.495Z,1.27
2023-02-02T02:49:17.846Z,1.90
2023-02-02T02:51:53.204Z,1.05
2023-02-02T02:54:22.130Z,1.17
2023-02-02T02:57:10.136Z,1.33
2023-02-02T02:59:53.168Z,0.68
2023-02-02T03:02:44.373Z,0.45
2023-02-02T03:05:30.306Z,0.98
2023-02-02T03:08:16.695Z,1.05
2023-02-02T03:10:45.995Z,1.30
2023-02-02T03:13:14.696Z,0.82
2023-02-02T03:15:45.697Z,1.13
2023-02-02T03:18:15.355Z,0.80
2023-02-02T03:20:44.511Z,0.85
2023-02-02T03:23:11.476Z,0.73
2023-02-02T03:25:38.614Z,0.68
2023-02-02T03:28:06.161Z,1.10
2023-02-02T03:30:33.927Z,1.58
2023-02-02T03:33:01.091Z,1.13
2023-02-02T03:35:27.930Z,0.45
2023-02-02T03:37:54.806Z,1.00
2023-02-02T03:40:21.616Z,0.57
2023-02-02T03:42:48.431Z,0.60
2023-02-02T03:45:15.325Z,0.93
2023-02-02T03:47:42.176Z,1.05
2023-02-02T03:50:10.052Z,1.38
2023-02-02T03:52:36.950Z,0.90
2023-02-02T03:55:04.006Z,1.23
2023-02-02T03:57:30.928Z,1.45
2023-02-02T03:59:57.818Z,0.90
2023-02-02T04:02:24.693Z,0.55
2023-02-02T04:04:51.562Z,0.70
2023-02-02T04:07:18.710Z,0.95
2023-02-02T04:09:45.569Z,1.25
2023-02-02T04:12:12.396Z,1.55
2023-02-02T04:14:39.184Z,1.00
2023-02-02T04:17:06.090Z,0.50
2023-02-02T04:19:32.927Z,0.55
2023-02-02T04:21:59.764Z,0.30
2023-02-02T04:24:26.569Z,0.70
2023-02-02T04:26:53.378Z,1.33
2023-02-02T04:29:20.204Z,0.65
2023-02-02T04:31:47.091Z,0.30
2023-02-02T04:34:13.920Z,0.15
2023-02-02T04:36:40.791Z,0.20
2023-02-02T04:39:07.580Z,0.20
2023-02-02T04:41:34.464Z,0.25
2023-02-02T04:44:01.308Z,0.15
2023-02-02T04:46:28.699Z,0.30
2023-02-02T04:48:55.748Z,0.75
2023-02-02T04:51:22.625Z,0.45
2023-02-02T04:53:49.558Z,0.25
2023-02-02T04:56:18.516Z,0.45
2023-02-02T04:58:46.103Z,0.20
2023-02-02T05:01:16.755Z,0.10
2023-02-02T05:03:43.882Z,0.30
2023-02-02T05:06:11.763Z,0.20
2023-02-02T05:08:39.905Z,0.35
2023-02-02T05:11:08.375Z,0.47
2023-02-02T05:13:35.406Z,0.35
2023-02-02T05:16:02.300Z,0.20
2023-02-02T05:18:31.514Z,1.08
2023-02-02T05:21:02.921Z,0.38
2023-02-02T05:23:30.719Z,0.32
2023-02-02T05:25:57.659Z,0.25
2023-02-02T05:28:25.019Z,0.35
2023-02-02T05:30:52.399Z,0.00
2023-02-02T05:33:19.802Z,0.10
2023-02-02T05:35:47.788Z,0.10
2023-02-02T05:38:15.419Z,0.90
2023-02-02T05:40:42.290Z,0.40
2023-02-02T05:43:09.115Z,0.30
2023-02-02T05:45:36.046Z,0.30
2023-02-02T05:48:02.955Z,0.30
2023-02-02T05:50:29.795Z,0.55
2023-02-02T05:52:56.700Z,0.45
2023-02-02T05:55:24.161Z,0.90
2023-02-02T05:57:51.168Z,0.50
2023-02-02T06:00:18.439Z,0.40
2023-02-02T06:02:45.352Z,0.40
2023-02-02T06:05:12.299Z,0.20
2023-02-02T06:07:39.159Z,0.10
2023-02-02T06:10:06.317Z,0.28
2023-02-02T06:12:33.114Z,0.10
2023-02-02T06:15:00.056Z,0.30
2023-02-02T06:17:27.498Z,0.20
2023-02-02T06:19:54.294Z,0.85
2023-02-02T06:22:21.127Z,0.30
2023-02-02T06:24:47.956Z,0.20
2023-02-02T06:27:14.849Z,0.47
2023-02-02T06:29:41.658Z,0.20
2023-02-02T06:32:08.705Z,0.17
2023-02-02T06:34:35.602Z,0.95
2023-02-02T06:37:02.475Z,0.10
2023-02-02T06:39:29.357Z,0.32
2023-02-02T06:41:56.180Z,0.10
2023-02-02T06:44:23.048Z,0.22
2023-02-02T06:46:49.974Z,0.43
2023-02-02T06:49:16.808Z,0.22
2023-02-02T06:51:43.770Z,0.60
2023-02-02T06:54:10.699Z,0.43
2023-02-02T06:56:37.596Z,0.35
2023-02-02T06:59:04.449Z,0.50
2023-02-02T07:01:31.506Z,0.30
2023-02-02T07:03:58.492Z,0.40
2023-02-02T07:06:27.866Z,0.68
2023-02-02T07:08:59.695Z,0.22
2023-02-02T07:11:29.839Z,0.00
2023-02-02T07:13:56.786Z,0.30
2023-02-02T07:16:23.777Z,0.25
2023-02-02T07:18:53.211Z,0.32
2023-02-02T07:21:25.470Z,0.32
2023-02-02T07:23:52.372Z,0.20
2023-02-02T07:26:20.025Z,0.22
2023-02-02T07:28:50.561Z,0.90
2023-02-02T07:31:20.302Z,0.40
2023-02-02T07:33:48.710Z,0.55
2023-02-02T07:36:18.819Z,0.55
2023-02-02T07:38:47.655Z,0.85
2023-02-02T07:41:15.569Z,0.50
2023-02-02T07:43:42.751Z,0.68
2023-02-02T07:46:12.806Z,0.20
2023-02-02T07:48:40.714Z,0.30
2023-02-02T07:51:11.922Z,0.10
2023-02-02T07:53:38.870Z,0.93
2023-02-02T07:56:18.111Z,0.65
2023-02-02T07:58:45.759Z,0.50
2023-02-02T08:01:14.560Z,0.73
2023-02-02T08:03:42.965Z,0.45
2023-02-02T08:06:17.685Z,0.25
2023-02-02T08:08:44.771Z,0.10
2023-02-02T08:11:13.647Z,0.35
2023-02-02T08:13:41.795Z,1.30
2023-02-02T08:16:09.312Z,0.57
2023-02-02T08:18:37.372Z,0.28
2023-02-02T08:21:07.547Z,0.40
2023-02-02T08:23:35.906Z,0.40
2023-02-02T08:26:08.441Z,0.28
2023-02-02T08:28:37.596Z,0.20
2023-02-02T08:31:06.361Z,0.30
2023-02-02T08:33:34.435Z,0.75
2023-02-02T08:36:01.490Z,0.77
2023-02-02T08:38:28.705Z,0.50
2023-02-02T08:40:55.836Z,0.30
2023-02-02T08:43:22.748Z,0.30
2023-02-02T08:46:01.351Z,0.75
2023-02-02T08:48:38.341Z,0.43
2023-02-02T08:51:07.207Z,0.47
2023-02-02T08:53:34.483Z,0.60
2023-02-02T08:56:14.353Z,0.82
2023-02-02T08:58:49.161Z,0.85
2023-02-02T09:01:19.708Z,0.80
2023-02-02T09:03:47.117Z,0.90
2023-02-02T09:06:17.256Z,0.50
2023-02-02T09:08:48.225Z,0.77
2023-02-02T09:11:18.089Z,0.50
2023-02-02T09:13:47.578Z,0.70
2023-02-02T09:16:17.753Z,0.30
2023-02-02T09:18:45.652Z,0.40
2023-02-02T09:21:17.367Z,0.50
2023-02-02T09:23:45.457Z,0.57
2023-02-02T09:26:35.613Z,0.77
2023-02-02T09:29:05.782Z,0.88
2023-02-02T09:31:37.637Z,0.57
2023-02-02T09:34:10.116Z,1.00
2023-02-02T09:36:38.737Z,1.23
2023-02-02T09:39:06.594Z,0.70
2023-02-02T09:41:39.592Z,0.70
2023-02-02T09:44:39.233Z,0.75
2023-02-02T09:47:24.070Z,0.50
2023-02-02T09:50:21.273Z,0.75
2023-02-02T09:53:16.148Z,0.60
2023-02-02T09:55:46.282Z,0.73
2023-02-02T09:58:25.385Z,0.65
2023-02-02T10:01:09.874Z,0.50
2023-02-02T10:03:42.777Z,0.60
2023-02-02T10:06:18.548Z,0.50
2023-02-02T10:09:03.152Z,0.68
2023-02-02T10:11:32.822Z,0.45
2023-02-02T10:14:06.192Z,0.50
2023-02-02T10:16:35.271Z,0.63
2023-02-02T10:19:10.876Z,0.50
2023-02-02T10:22:11.656Z,0.63
2023-02-02T10:24:38.712Z,0.63
2023-02-02T10:27:11.850Z,0.50
2023-02-02T10:29:58.586Z,0.70
2023-02-02T10:32:33.774Z,0.68
2023-02-02T10:35:14.479Z,0.65
2023-02-02T10:37:57.081Z,0.52
2023-02-02T10:40:33.469Z,1.20
2023-02-02T10:43:45.892Z,0.30
2023-02-02T10:46:42.095Z,0.38
2023-02-02T10:49:26.030Z,0.40
2023-02-02T10:52:11.456Z,0.40
2023-02-02T10:55:04.493Z,0.43
2023-02-02T10:57:57.859Z,0.60
2023-02-02T11:00:51.485Z,0.30
2023-02-02T11:03:20.829Z,0.28
2023-02-02T11:06:06.228Z,0.82
2023-02-02T11:09:11.076Z,0.25
2023-02-02T11:12:06.102Z,0.20
2023-02-02T11:14:45.518Z,0.20
2023-02-02T11:17:24.480Z,0.15
2023-02-02T11:19:52.403Z,0.20
2023-02-02T11:22:29.366Z,0.25
2023-02-02T11:24:58.498Z,0.20
2023-02-02T11:27:41.470Z,0.20
2023-02-02T11:30:41.382Z,0.40
2023-02-02T11:33:21.128Z,0.40
2023-02-02T11:35:55.210Z,0.50
2023-02-02T11:38:22.083Z,0.15
2023-02-02T11:41:09.169Z,0.20
2023-02-02T11:43:41.955Z,0.08
2023-02-02T11:46:25.366Z,0.60
2023-02-02T11:49:02.811Z,0.30
2023-02-02T11:51:31.773Z,0.35
2023-02-02T11:54:15.252Z,0.20
2023-02-02T11:56:43.220Z,0.10
2023-02-02T11:59:36.102Z,0.50
2023-02-02T12:02:26.140Z,0.30
2023-02-02T12:04:56.546Z,0.30
2023-02-02T12:07:32.985Z,0.22
2023-02-02T12:10:18.133Z,0.22
2023-02-02T12:12:47.790Z,0.25
2023-02-02T12:15:36.533Z,0.20
2023-02-02T12:18:25.348Z,0.20
2023-02-02T12:21:00.701Z,0.40
2023-02-02T12:23:36.386Z,0.20
2023-02-02T12:26:27.099Z,0.30
2023-02-02T12:29:49.829Z,0.10
2023-02-02T12:32:46.405Z,0.28
2023-02-02T12:38:22.172Z,0.10
2023-02-02T12:41:16.014Z,0.40
2023-02-02T12:43:50.698Z,0.30
2023-02-02T12:46:31.717Z,0.38
2023-02-02T12:49:33.626Z,0.13
2023-02-02T12:52:11.765Z,0.32
2023-02-02T12:55:16.960Z,0.80
2023-02-02T12:58:02.264Z,0.60
2023-02-02T13:00:42.482Z,0.35
2023-02-02T13:03:41.754Z,0.35
2023-02-02T13:06:17.981Z,0.88
2023-02-02T13:09:06.381Z,0.80
2023-02-02T13:11:42.011Z,0.93
2023-02-02T13:14:33.020Z,1.05
2023-02-02T13:17:11.458Z,0.52
2023-02-02T13:19:46.274Z,0.82
2023-02-02T13:22:21.221Z,0.75
2023-02-02T13:24:52.995Z,1.00
2023-02-02T13:27:21.755Z,1.40
2023-02-02T13:30:05.579Z,0.80
2023-02-02T13:32:34.142Z,1.07
2023-02-02T13:35:18.779Z,0.73
2023-02-02T13:43:40.945Z,0.63
2023-02-02T13:46:33.544Z,1.08
2023-02-02T13:49:04.698Z,1.05
2023-02-02T13:51:40.561Z,1.10
2023-02-02T13:54:33.488Z,0.80
2023-02-02T13:57:26.910Z,1.08
2023-02-02T14:00:00.504Z,0.95
2023-02-02T14:02:38.843Z,1.23
2023-02-02T14:05:07.973Z,1.60
2023-02-02T14:07:45.362Z,1.00
2023-02-02T14:10:22.545Z,0.93
2023-02-02T14:12:49.930Z,1.60
2023-02-02T14:15:16.932Z,0.85
2023-02-02T14:17:43.836Z,1.40
2023-02-02T14:20:41.933Z,1.20
2023-02-02T14:23:46.681Z,1.13
2023-02-02T14:26:20.230Z,2.05
2023-02-02T14:28:49.921Z,0.93
2023-02-02T14:31:28.970Z,1.27
2023-02-02T14:34:15.947Z,1.30
2023-02-02T14:37:09.901Z,1.20
2023-02-02T14:39:50.017Z,1.50
2023-02-02T14:42:50.783Z,1.85
2023-02-02T14:45:27.130Z,1.80
2023-02-02T14:48:18.300Z,2.05
2023-02-02T14:51:12.429Z,2.45
2023-02-02T14:53:40.491Z,1.80
2023-02-02T14:56:13.425Z,2.60
2023-02-02T14:58:46.066Z,1.80
2023-02-02T15:01:23.639Z,2.33
2023-02-02T15:04:00.968Z,2.00
2023-02-02T15:06:35.143Z,1.52
2023-02-02T15:09:22.199Z,1.67
2023-02-02T15:12:01.913Z,3.35
2023-02-02T15:14:41.149Z,3.47
2023-02-02T15:17:21.152Z,2.67
2023-02-02T15:19:56.198Z,2.92
2023-02-02T15:22:50.474Z,2.30
2023-02-02T15:25:32.361Z,3.13
2023-02-02T15:28:24.421Z,2.45
2023-02-02T15:31:20.434Z,2.67
2023-02-02T15:33:53.829Z,2.47
2023-02-02T15:36:25.983Z,2.03
2023-02-02T15:38:59.467Z,2.88
2023-02-02T15:41:32.575Z,2.03
2023-02-02T15:44:00.344Z,2.22
2023-02-02T15:46:32.471Z,2.08
2023-02-02T15:49:35.805Z,1.73
2023-02-02T15:52:17.649Z,2.80
2023-02-02T15:54:59.087Z,2.53
2023-02-02T15:57:34.981Z,1.95
2023-02-02T16:00:28.035Z,2.08
2023-02-02T16:03:22.841Z,2.10
2023-02-02T16:05:56.126Z,1.70
2023-02-02T16:08:34.275Z,1.60
2023-02-02T16:11:14.503Z,2.10
2023-02-02T16:13:44.042Z,2.00
2023-02-02T16:16:27.286Z,2.50
2023-02-02T16:19:15.575Z,2.17
2023-02-02T16:22:04.290Z,2.10
2023-02-02T16:24:33.824Z,2.33
2023-02-02T16:27:05.375Z,3.20
2023-02-02T16:29:33.332Z,2.97
2023-02-02T16:32:00.606Z,2.70
2023-02-02T16:34:40.717Z,2.40
2023-02-02T16:37:33.261Z,2.85
2023-02-02T16:40:35.875Z,2.60
2023-02-02T16:43:27.194Z,3.42
2023-02-02T16:46:00.772Z,2.60
2023-02-02T16:48:36.574Z,2.60
2023-02-02T16:51:05.648Z,2.88
2023-02-02T16:53:32.805Z,2.28
2023-02-02T16:55:59.742Z,2.40
2023-02-02T16:58:27.451Z,2.58
2023-02-02T17:01:15.459Z,2.90
2023-02-02T17:03:53.171Z,2.80
2023-02-02T17:06:41.675Z,2.78
2023-02-02T17:09:34.830Z,2.92
2023-02-02T17:12:12.192Z,2.65
2023-02-02T17:14:50.712Z,2.63
2023-02-02T17:17:17.802Z,2.47
2023-02-02T17:19:44.998Z,2.40
2023-02-02T17:22:11.845Z,2.33
2023-02-02T17:24:38.686Z,2.50
2023-02-02T17:27:07.909Z,2.80
2023-02-02T17:29:35.366Z,2.47
2023-02-02T17:32:02.339Z,2.30
2023-02-02T17:34:30.911Z,2.47
2023-02-02T17:36:57.841Z,2.20
2023-02-02T17:39:27.369Z,2.65
2023-02-02T17:41:54.388Z,2.70
2023-02-02T17:44:21.331Z,2.47
2023-02-02T17:46:48.326Z,3.28
2023-02-02T17:49:17.954Z,3.25
2023-02-02T17:51:47.989Z,2.65
2023-02-02T17:54:16.026Z,3.28
2023-02-02T17:56:43.618Z,3.20
2023-02-02T17:59:12.315Z,3.78
2023-02-02T18:01:41.694Z,2.97
2023-02-02T18:04:12.309Z,3.15
2023-02-02T18:06:40.078Z,3.55
2023-02-02T18:09:07.449Z,3.65
2023-02-02T18:11:34.742Z,4.28
2023-02-02T18:14:02.227Z,4.78
2023-02-02T18:16:29.706Z,4.47
2023-02-02T18:18:58.545Z,3.30
2023-02-02T18:21:26.776Z,4.47
2023-02-02T18:23:54.225Z,3.65
2023-02-02T18:26:22.888Z,3.97
2023-02-02T18:28:50.942Z,4.78
2023-02-02T18:31:21.126Z,4.45
2023-02-02T18:33:48.772Z,3.78
2023-02-02T18:36:20.170Z,3.92
2023-02-02T18:38:49.491Z,4.55
2023-02-02T18:41:18.897Z,4.20
2023-02-02T18:43:46.345Z,4.88
2023-02-02T18:46:15.404Z,4.50
2023-02-02T18:48:42.724Z,4.45
2023-02-02T18:51:16.552Z,5.93
2023-02-02T18:53:44.059Z,5.30
2023-02-02T18:56:12.976Z,4.82
2023-02-02T18:58:40.337Z,5.03
2023-02-02T19:01:12.439Z,4.55
2023-02-02T19:03:40.353Z,4.65
2023-02-02T19:06:27.701Z,3.85
2023-02-02T19:08:55.664Z,4.10
2023-02-02T19:11:24.913Z,3.67
2023-02-02T19:13:51.753Z,3.58
2023-02-02T19:16:27.940Z,3.28
2023-02-02T19:19:00.814Z,2.88
2023-02-02T19:21:30.669Z,2.72
2023-02-02T19:23:59.613Z,3.33
2023-02-02T19:26:28.098Z,2.67
2023-02-02T19:29:01.392Z,2.70
2023-02-02T19:31:28.539Z,3.38
2023-02-02T19:33:55.487Z,3.55
2023-02-02T19:36:24.360Z,2.80
2023-02-02T19:39:05.529Z,3.50
2023-02-02T19:41:32.507Z,3.25
2023-02-02T19:44:06.198Z,2.83
2023-02-02T19:46:40.886Z,3.22
2023-02-02T19:49:20.939Z,3.53
2023-02-02T19:51:51.439Z,2.90
2023-02-02T19:54:26.844Z,3.67
2023-02-02T19:56:57.629Z,3.05
2023-02-02T19:59:26.652Z,2.65
2023-02-02T20:01:55.234Z,3.75
2023-02-02T20:04:23.404Z,3.40
2023-02-02T20:06:59.071Z,3.17
2023-02-02T20:09:35.243Z,4.47
2023-02-02T20:12:18.295Z,3.17
2023-02-02T20:14:47.332Z,3.72
2023-02-02T20:17:26.162Z,4.75
2023-02-02T20:19:52.973Z,2.72
2023-02-02T20:22:32.708Z,3.47
2023-02-02T20:25:08.059Z,3.08
2023-02-02T20:27:35.105Z,3.67
2023-02-02T20:30:22.116Z,3.45
2023-02-02T20:32:57.024Z,2.88
2023-02-02T20:35:33.251Z,4.22
2023-02-02T20:38:00.561Z,2.97
2023-02-02T20:40:30.022Z,3.30
2023-02-02T20:42:58.343Z,2.63
2023-02-02T20:45:25.648Z,4.38
2023-02-02T20:47:52.914Z,3.65
2023-02-02T20:50:21.711Z,3.50
2023-02-02T20:52:50.958Z,3.33
2023-02-02T20:55:18.199Z,4.03
2023-02-02T20:57:45.275Z,2.75
2023-02-02T21:00:16.005Z,4.30
2023-02-02T21:02:43.241Z,2.42
2023-02-02T21:05:10.138Z,2.85
2023-02-02T21:07:37.115Z,3.80
2023-02-02T21:10:05.117Z,2.83
2023-02-02T21:12:32.185Z,2.80
2023-02-02T21:14:59.329Z,3.72
2023-02-02T21:17:27.453Z,4.07
2023-02-02T21:19:54.373Z,3.83
2023-02-02T21:22:21.295Z,3.30
2023-02-02T21:24:48.273Z,2.92
2023-02-02T21:27:15.139Z,2.90
2023-02-02T21:29:42.143Z,3.40
2023-02-02T21:32:09.367Z,2.60
2023-02-02T21:34:37.811Z,3.33
2023-02-02T21:37:15.178Z,2.92
2023-02-02T21:39:48.381Z,2.65
2023-02-02T21:42:22.634Z,3.63
2023-02-02T21:45:19.329Z,3.30
2023-02-02T21:47:58.183Z,2.50
2023-02-02T21:50:37.694Z,3.22
2023-02-02T21:53:16.684Z,2.38
2023-02-02T21:55:55.925Z,2.42
2023-02-02T21:58:32.374Z,2.88
2023-02-02T22:01:14.850Z,2.85
2023-02-02T22:03:46.749Z,2.05
2023-02-02T22:06:29.648Z,2.60
2023-02-02T22:09:23.835Z,3.28
2023-02-02T22:11:50.600Z,2.33
2023-02-02T22:14:20.308Z,2.58
2023-02-02T22:16:51.098Z,1.83
2023-02-02T22:19:27.102Z,2.50
2023-02-02T22:22:15.160Z,2.38
2023-02-02T22:24:44.323Z,1.77
2023-02-02T22:27:19.920Z,1.83
2023-02-02T22:29:47.067Z,1.88
2023-02-02T22:32:13.960Z,1.90
2023-02-02T22:34:40.847Z,1.30
2023-02-02T22:37:07.636Z,2.17
2023-02-02T22:39:38.528Z,1.70
2023-02-02T22:42:05.790Z,2.25
2023-02-02T22:44:32.617Z,1.73
2023-02-02T22:46:59.598Z,1.55
2023-02-02T22:49:26.478Z,1.95
2023-02-02T22:51:54.281Z,1.25
2023-02-02T22:54:21.316Z,1.73
2023-02-02T22:56:48.124Z,1.70
2023-02-02T22:59:15.150Z,1.50
2023-02-02T23:01:41.947Z,2.25
2023-02-02T23:04:08.856Z,1.35
2023-02-02T23:06:35.763Z,1.55
2023-02-02T23:09:02.746Z,1.55
2023-02-02T23:11:29.542Z,1.00
2023-02-02T23:13:57.499Z,2.08
2023-02-02T23:16:24.723Z,1.42
2023-02-02T23:18:51.601Z,1.20
2023-02-02T23:21:18.480Z,1.52
2023-02-02T23:23:45.320Z,1.23
2023-02-02T23:26:12.106Z,1.75
2023-02-02T23:28:38.920Z,1.20
2023-02-02T23:31:05.946Z,1.38
2023-02-02T23:33:32.990Z,1.20
2023-02-02T23:35:59.856Z,1.52
2023-02-02T23:38:26.793Z,2.17
2023-02-02T23:40:53.560Z,1.30
2023-02-02T23:43:20.348Z,1.42
2023-02-02T23:45:47.230Z,1.20
2023-02-02T23:48:14.179Z,1.63
2023-02-02T23:50:41.418Z,1.77
2023-02-02T23:53:10.057Z,1.92
2023-02-02T23:55:37.485Z,0.90
2023-02-02T23:58:04.377Z,1.83
